createdAt,value
2018-08-17T00:00:09.747Z,43.61
2018-08-17T00:01:47.386Z,44.18
2018-08-17T00:03:25.182Z,44.31
2018-08-17T00:05:01.822Z,44.32
2018-08-17T00:06:39.238Z,44.07
2018-08-17T00:08:21.202Z,43.65
2018-08-17T00:09:59.537Z,44.12
2018-08-17T00:11:38.513Z,44.39
2018-08-17T00:13:15.317Z,44.35
2018-08-17T00:14:52.340Z,44.43
2018-08-17T00:16:29.574Z,44.13
2018-08-17T00:18:12.687Z,43.80
2018-08-17T00:19:48.569Z,43.94
2018-08-17T00:21:27.196Z,44.02
2018-08-17T00:23:05.431Z,43.94
2018-08-17T00:24:42.434Z,44.41
2018-08-17T00:26:17.776Z,44.55
2018-08-17T00:27:54.550Z,44.32
2018-08-17T00:29:32.652Z,44.03
2018-08-17T00:31:09.482Z,44.55
2018-08-17T00:32:46.272Z,44.40
2018-08-17T00:34:21.982Z,44.66
2018-08-17T00:35:58.251Z,44.68
2018-08-17T00:37:35.562Z,44.75
2018-08-17T00:39:11.727Z,44.08
2018-08-17T00:40:49.027Z,44.73
2018-08-17T00:42:25.843Z,44.25
2018-08-17T00:44:01.929Z,44.81
2018-08-17T00:45:41.744Z,44.72
2018-08-17T00:47:16.993Z,44.28
2018-08-17T00:48:52.875Z,44.25
2018-08-17T00:50:29.455Z,44.20
2018-08-17T00:52:05.135Z,44.84
2018-08-17T00:53:41.177Z,44.55
2018-08-17T00:55:17.660Z,44.25
2018-08-17T00:56:55.646Z,45.03
2018-08-17T00:58:32.865Z,44.76
2018-08-17T01:00:12.586Z,44.72
2018-08-17T01:01:48.860Z,44.77
2018-08-17T01:03:26.950Z,44.46
2018-08-17T01:05:04.362Z,44.78
2018-08-17T01:06:42.662Z,44.89
2018-08-17T01:08:19.678Z,44.86
2018-08-17T01:09:58.485Z,45.15
2018-08-17T01:11:45.181Z,45.22
2018-08-17T01:13:21.830Z,45.25
2018-08-17T01:15:01.427Z,45.13
2018-08-17T01:16:37.634Z,45.50
2018-08-17T01:18:14.172Z,44.99
2018-08-17T01:19:49.777Z,44.87
2018-08-17T01:21:25.922Z,45.55
2018-08-17T01:23:02.504Z,44.76
2018-08-17T01:24:37.674Z,44.90
2018-08-17T01:26:14.070Z,45.34
2018-08-17T01:27:49.313Z,45.47
2018-08-17T01:29:27.365Z,44.80
2018-08-17T01:31:03.700Z,45.57
2018-08-17T01:32:39.450Z,45.58
2018-08-17T01:34:14.618Z,45.12
2018-08-17T01:35:52.292Z,45.27
2018-08-17T01:37:28.561Z,45.35
2018-08-17T01:39:06.560Z,45.56
2018-08-17T01:40:42.653Z,45.07
2018-08-17T01:42:18.628Z,44.96
2018-08-17T01:43:53.846Z,45.67
2018-08-17T01:45:29.753Z,45.39
2018-08-17T01:47:05.072Z,45.62
2018-08-17T01:48:41.328Z,45.22
2018-08-17T01:50:20.559Z,45.70
2018-08-17T01:51:59.698Z,45.07
2018-08-17T01:53:37.893Z,45.82
2018-08-17T01:55:15.745Z,45.67
2018-08-17T01:56:52.586Z,45.72
2018-08-17T01:58:28.495Z,45.19
2018-08-17T02:00:05.743Z,45.25
2018-08-17T02:01:43.130Z,45.76
2018-08-17T02:03:18.422Z,45.89
2018-08-17T02:04:54.495Z,45.24
2018-08-17T02:06:31.247Z,45.31
2018-08-17T02:08:11.310Z,45.67
2018-08-17T02:09:47.050Z,45.77
2018-08-17T02:11:22.628Z,45.24
2018-08-17T02:12:59.512Z,45.83
2018-08-17T02:14:35.434Z,45.89
2018-08-17T02:16:11.023Z,45.37
2018-08-17T02:17:46.273Z,45.35
2018-08-17T02:19:22.258Z,45.36
2018-08-17T02:20:58.210Z,45.98
2018-08-17T02:22:33.444Z,45.43
2018-08-17T02:24:08.890Z,46.02
2018-08-17T02:25:44.310Z,45.96
2018-08-17T02:27:20.108Z,46.06
2018-08-17T02:28:55.405Z,45.42
2018-08-17T02:30:31.012Z,46.00
2018-08-17T02:32:07.506Z,45.53
2018-08-17T02:33:44.194Z,45.58
2018-08-17T02:35:22.026Z,45.84
2018-08-17T02:37:00.834Z,46.20
2018-08-17T02:38:38.334Z,46.17
2018-08-17T02:41:58.358Z,45.63
2018-08-17T02:43:34.235Z,46.30
2018-08-17T02:45:10.465Z,45.80
2018-08-17T02:46:47.112Z,46.20
2018-08-17T02:48:22.575Z,46.30
2018-08-17T02:49:57.807Z,45.85
2018-08-17T02:51:33.449Z,46.40
2018-08-17T02:53:09.395Z,45.77
2018-08-17T02:54:45.717Z,46.65
2018-08-17T02:56:23.378Z,45.84
2018-08-17T02:57:58.951Z,46.34
2018-08-17T02:59:34.798Z,45.91
2018-08-17T03:01:11.234Z,46.59
2018-08-17T03:02:46.716Z,46.06
2018-08-17T03:04:22.484Z,46.63
2018-08-17T03:05:58.567Z,46.20
2018-08-17T03:07:33.732Z,46.08
2018-08-17T03:09:11.195Z,46.70
2018-08-17T03:10:46.434Z,46.30
2018-08-17T03:12:21.959Z,46.81
2018-08-17T03:13:58.082Z,46.36
2018-08-17T03:15:33.626Z,46.84
2018-08-17T03:17:09.836Z,46.42
2018-08-17T03:18:45.492Z,46.99
2018-08-17T03:20:20.729Z,47.06
2018-08-17T03:21:55.898Z,47.16
2018-08-17T03:23:31.417Z,46.58
2018-08-17T03:25:06.664Z,47.18
2018-08-17T03:26:42.639Z,46.55
2018-08-17T03:28:17.847Z,47.22
2018-08-17T03:29:53.312Z,47.29
2018-08-17T03:31:30.467Z,47.28
2018-08-17T03:33:05.693Z,46.70
2018-08-17T03:34:41.549Z,47.40
2018-08-17T03:36:17.611Z,47.39
2018-08-17T03:37:52.836Z,47.33
2018-08-17T03:39:28.808Z,46.96
2018-08-17T03:41:04.917Z,46.91
2018-08-17T03:42:41.634Z,47.55
2018-08-17T03:44:16.811Z,47.48
2018-08-17T03:45:52.384Z,47.80
2018-08-17T03:47:29.936Z,47.54
2018-08-17T03:49:07.248Z,47.33
2018-08-17T03:50:45.470Z,47.10
2018-08-17T03:52:21.066Z,47.15
2018-08-17T03:53:57.736Z,47.24
2018-08-17T03:55:32.940Z,47.26
2018-08-17T03:57:08.670Z,47.30
2018-08-17T03:58:44.349Z,47.36
2018-08-17T04:00:22.851Z,47.36
2018-08-17T04:01:59.292Z,47.91
2018-08-17T04:03:35.213Z,47.41
2018-08-17T04:05:10.927Z,47.46
2018-08-17T04:06:47.095Z,48.04
2018-08-17T04:08:23.549Z,47.55
2018-08-17T04:09:59.054Z,47.52
2018-08-17T04:11:35.530Z,48.18
2018-08-17T04:13:11.786Z,48.21
2018-08-17T04:14:46.950Z,47.78
2018-08-17T04:16:22.566Z,47.78
2018-08-17T04:17:58.460Z,47.83
2018-08-17T04:19:35.791Z,48.37
2018-08-17T04:21:10.998Z,48.44
2018-08-17T04:22:46.781Z,48.48
2018-08-17T04:24:23.347Z,48.94
2018-08-17T04:26:00.434Z,48.54
2018-08-17T04:27:36.442Z,48.08
2018-08-17T04:29:11.961Z,48.65
2018-08-17T04:30:47.621Z,48.46
2018-08-17T04:32:25.132Z,48.24
2018-08-17T04:34:00.959Z,48.19
2018-08-17T04:35:36.193Z,48.61
2018-08-17T04:37:14.787Z,49.10
2018-08-17T04:40:21.486Z,49.07
2018-08-17T04:41:59.635Z,48.46
2018-08-17T04:43:35.218Z,48.97
2018-08-17T04:45:10.961Z,48.63
2018-08-17T04:46:46.499Z,49.17
2018-08-17T04:48:22.115Z,49.26
2018-08-17T04:50:00.775Z,49.33
2018-08-17T04:51:39.795Z,49.22
2018-08-17T04:53:15.943Z,48.63
2018-08-17T04:54:51.149Z,49.25
2018-08-17T04:56:27.006Z,49.41
2018-08-17T04:58:03.254Z,48.72
2018-08-17T04:59:39.230Z,48.75
2018-08-17T05:01:14.750Z,48.77
2018-08-17T05:02:50.150Z,48.83
2018-08-17T05:04:26.364Z,48.90
2018-08-17T05:06:01.591Z,48.86
2018-08-17T05:07:37.434Z,49.22
2018-08-17T05:09:17.185Z,48.90
2018-08-17T05:10:53.238Z,49.60
2018-08-17T05:12:35.422Z,49.15
2018-08-17T05:14:13.019Z,49.03
2018-08-17T05:15:49.073Z,49.61
2018-08-17T05:17:35.667Z,49.11
2018-08-17T05:19:11.594Z,49.09
2018-08-17T05:20:47.005Z,49.66
2018-08-17T05:22:22.222Z,49.52
2018-08-17T05:23:57.606Z,49.18
2018-08-17T05:25:35.484Z,49.31
2018-08-17T05:27:11.855Z,49.24
2018-08-17T05:28:47.730Z,49.90
2018-08-17T05:30:47.963Z,49.91
2018-08-17T05:32:30.159Z,49.34
2018-08-17T05:34:12.766Z,49.46
2018-08-17T05:35:54.111Z,49.45
2018-08-17T05:37:30.829Z,49.98
2018-08-17T05:39:07.625Z,49.46
2018-08-17T05:40:43.532Z,49.57
2018-08-17T05:42:19.557Z,49.53
2018-08-17T05:43:55.697Z,49.48
2018-08-17T05:45:32.752Z,49.58
2018-08-17T05:47:11.760Z,49.48
2018-08-17T05:48:47.462Z,49.70
2018-08-17T05:50:25.075Z,50.23
2018-08-17T05:52:02.388Z,50.35
2018-08-17T05:53:37.647Z,49.72
2018-08-17T05:55:13.369Z,49.83
2018-08-17T05:56:50.385Z,49.86
2018-08-17T05:58:27.080Z,49.78
2018-08-17T06:00:05.651Z,49.89
2018-08-17T06:01:41.299Z,50.47
2018-08-17T06:03:16.647Z,50.63
2018-08-17T06:04:54.236Z,49.97
2018-08-17T06:06:29.927Z,50.06
2018-08-17T06:08:05.604Z,50.71
2018-08-17T06:09:40.824Z,50.12
2018-08-17T06:11:16.083Z,50.12
2018-08-17T06:12:51.271Z,50.79
2018-08-17T06:14:26.675Z,50.75
2018-08-17T06:16:04.929Z,50.22
2018-08-17T06:17:41.253Z,50.79
2018-08-17T06:19:16.585Z,50.70
2018-08-17T06:20:54.790Z,50.22
2018-08-17T06:22:29.956Z,50.84
2018-08-17T06:24:06.319Z,50.32
2018-08-17T06:25:41.565Z,50.27
2018-08-17T06:27:17.545Z,50.29
2018-08-17T06:28:53.650Z,50.44
2018-08-17T06:30:29.397Z,50.46
2018-08-17T06:32:05.058Z,50.99
2018-08-17T06:33:40.795Z,50.99
2018-08-17T06:35:16.219Z,50.43
2018-08-17T06:36:53.111Z,50.38
2018-08-17T06:38:28.321Z,50.48
2018-08-17T06:40:05.495Z,50.57
2018-08-17T06:41:43.985Z,50.59
2018-08-17T06:43:19.493Z,50.96
2018-08-17T06:44:54.686Z,50.61
2018-08-17T06:46:30.616Z,51.15
2018-08-17T06:48:14.828Z,50.68
2018-08-17T06:49:53.644Z,51.17
2018-08-17T06:51:34.688Z,50.78
2018-08-17T06:53:10.438Z,51.32
2018-08-17T06:54:46.590Z,51.30
2018-08-17T06:56:22.759Z,50.94
2018-08-17T06:57:58.524Z,51.49
2018-08-17T06:59:33.741Z,51.44
2018-08-17T07:01:09.214Z,51.55
2018-08-17T07:02:45.948Z,51.65
2018-08-17T07:04:28.217Z,51.17
2018-08-17T07:06:05.209Z,51.60
2018-08-17T07:07:41.973Z,51.76
2018-08-17T07:09:19.624Z,51.17
2018-08-17T07:10:55.377Z,51.30
2018-08-17T07:12:31.941Z,51.31
2018-08-17T07:14:07.750Z,52.05
2018-08-17T07:15:43.617Z,51.97
2018-08-17T07:17:20.286Z,51.54
2018-08-17T07:18:59.293Z,51.92
2018-08-17T07:20:35.536Z,51.61
2018-08-17T07:22:12.670Z,52.10
2018-08-17T07:23:48.846Z,52.21
2018-08-17T07:25:24.042Z,51.65
2018-08-17T07:27:02.877Z,51.64
2018-08-17T07:28:39.529Z,52.28
2018-08-17T07:30:18.048Z,52.30
2018-08-17T07:31:54.423Z,52.45
2018-08-17T07:33:32.312Z,52.51
2018-08-17T07:35:12.204Z,52.08
2018-08-17T07:36:50.849Z,52.14
2018-08-17T07:38:27.847Z,52.73
2018-08-17T07:40:04.253Z,52.77
2018-08-17T07:41:41.748Z,52.36
2018-08-17T07:43:18.360Z,52.13
2018-08-17T07:44:58.075Z,52.92
2018-08-17T07:46:35.826Z,52.44
2018-08-17T07:48:17.465Z,52.46
2018-08-17T07:49:52.525Z,52.59
2018-08-17T07:51:30.636Z,53.25
2018-08-17T07:53:10.727Z,52.59
2018-08-17T07:54:50.377Z,52.66
2018-08-17T07:56:26.540Z,53.28
2018-08-17T07:58:03.490Z,53.28
2018-08-17T07:59:39.108Z,53.41
2018-08-17T08:01:18.049Z,53.51
2018-08-17T08:02:53.280Z,53.64
2018-08-17T08:04:31.062Z,53.73
2018-08-17T08:06:09.183Z,53.68
2018-08-17T08:07:48.502Z,53.66
2018-08-17T08:09:27.619Z,53.65
2018-08-17T08:11:04.326Z,53.61
2018-08-17T08:12:44.409Z,53.69
2018-08-17T08:14:20.919Z,53.86
2018-08-17T08:15:56.546Z,53.83
2018-08-17T08:17:32.451Z,53.42
2018-08-17T08:19:13.685Z,53.61
2018-08-17T08:20:48.957Z,54.03
2018-08-17T08:22:24.126Z,53.51
2018-08-17T08:23:59.379Z,53.96
2018-08-17T08:25:35.222Z,54.13
2018-08-17T08:27:12.788Z,53.83
2018-08-17T08:28:48.027Z,53.78
2018-08-17T08:30:25.131Z,53.66
2018-08-17T08:32:07.601Z,54.06
2018-08-17T08:33:44.337Z,54.21
2018-08-17T08:35:22.012Z,53.78
2018-08-17T08:37:01.670Z,53.90
2018-08-17T08:38:38.817Z,54.31
2018-08-17T08:40:14.734Z,54.12
2018-08-17T08:41:50.520Z,54.03
2018-08-17T08:43:28.127Z,54.29
2018-08-17T08:45:08.178Z,54.17
2018-08-17T08:46:44.984Z,54.67
2018-08-17T08:48:23.582Z,54.18
2018-08-17T08:50:00.867Z,54.72
2018-08-17T08:51:41.330Z,54.80
2018-08-17T08:53:20.294Z,54.89
2018-08-17T08:54:55.591Z,54.87
2018-08-17T08:56:33.866Z,54.31
2018-08-17T08:58:20.134Z,54.23
2018-08-17T09:00:02.670Z,54.43
2018-08-17T09:01:39.234Z,54.97
2018-08-17T09:03:14.454Z,55.00
2018-08-17T09:04:50.381Z,55.10
2018-08-17T09:06:26.579Z,55.08
2018-08-17T09:08:01.986Z,55.07
2018-08-17T09:09:38.227Z,55.07
2018-08-17T09:11:16.253Z,54.50
2018-08-17T09:12:52.689Z,54.62
2018-08-17T09:14:34.203Z,55.24
2018-08-17T09:16:11.115Z,55.22
2018-08-17T09:17:46.337Z,55.14
2018-08-17T09:19:24.155Z,55.33
2018-08-17T09:21:03.642Z,54.34
2018-08-17T09:22:42.853Z,54.61
2018-08-17T09:24:19.335Z,54.78
2018-08-17T09:25:54.976Z,55.51
2018-08-17T09:27:36.432Z,55.37
2018-08-17T09:31:06.642Z,55.43
2018-08-17T09:32:54.072Z,54.94
2018-08-17T09:34:34.641Z,55.46
2018-08-17T09:36:10.082Z,55.56
2018-08-17T09:37:46.136Z,54.91
2018-08-17T09:39:24.801Z,54.92
2018-08-17T09:41:00.387Z,55.03
2018-08-17T09:42:36.971Z,55.05
2018-08-17T09:44:15.321Z,54.99
2018-08-17T09:45:52.428Z,54.92
2018-08-17T09:47:29.122Z,55.30
2018-08-17T09:49:05.946Z,55.63
2018-08-17T09:50:44.026Z,55.63
2018-08-17T09:52:19.503Z,55.69
2018-08-17T09:53:55.334Z,55.16
2018-08-17T09:55:30.779Z,55.85
2018-08-17T09:57:07.118Z,55.80
2018-08-17T09:58:42.403Z,55.21
2018-08-17T10:00:20.045Z,55.99
2018-08-17T10:02:01.182Z,55.58
2018-08-17T10:03:43.903Z,55.88
2018-08-17T10:07:18.008Z,55.63
2018-08-17T10:09:04.757Z,55.29
2018-08-17T10:10:43.291Z,55.35
2018-08-17T10:12:25.190Z,56.00
2018-08-17T10:14:01.121Z,55.98
2018-08-17T10:15:39.982Z,55.44
2018-08-17T10:17:16.571Z,56.07
2018-08-17T10:18:52.879Z,55.86
2018-08-17T10:20:29.996Z,55.57
2018-08-17T10:22:10.326Z,55.99
2018-08-17T10:23:46.406Z,55.87
2018-08-17T10:25:24.923Z,55.87
2018-08-17T10:27:02.283Z,55.67
2018-08-17T10:28:39.118Z,56.25
2018-08-17T10:30:18.528Z,55.58
2018-08-17T10:31:57.786Z,55.68
2018-08-17T10:33:35.508Z,55.67
2018-08-17T10:35:23.617Z,56.00
2018-08-17T10:37:01.603Z,55.69
2018-08-17T10:38:38.500Z,55.73
2018-08-17T10:40:13.854Z,56.32
2018-08-17T10:41:50.541Z,56.11
2018-08-17T10:43:26.654Z,55.72
2018-08-17T10:45:04.208Z,56.50
2018-08-17T10:46:39.745Z,56.56
2018-08-17T10:48:16.053Z,55.93
2018-08-17T10:50:02.780Z,56.51
2018-08-17T10:51:47.927Z,56.48
2018-08-17T10:53:48.567Z,56.42
2018-08-17T10:55:29.473Z,55.85
2018-08-17T10:57:07.332Z,56.16
2018-08-17T10:58:46.899Z,56.63
2018-08-17T11:00:23.994Z,56.01
2018-08-17T11:02:00.921Z,56.04
2018-08-17T11:03:36.273Z,56.57
2018-08-17T11:05:12.223Z,56.34
2018-08-17T11:06:47.937Z,56.36
2018-08-17T11:08:24.192Z,56.62
2018-08-17T11:10:05.510Z,56.20
2018-08-17T11:11:44.383Z,56.14
2018-08-17T11:13:23.296Z,56.73
2018-08-17T11:14:59.922Z,56.72
2018-08-17T11:16:36.427Z,56.12
2018-08-17T11:18:17.006Z,56.78
2018-08-17T11:19:55.867Z,56.97
2018-08-17T11:21:31.412Z,56.80
2018-08-17T11:23:06.788Z,56.67
2018-08-17T11:24:42.537Z,56.74
2018-08-17T11:26:23.102Z,56.15
2018-08-17T11:28:01.444Z,56.37
2018-08-17T11:29:37.981Z,56.75
2018-08-17T11:31:26.319Z,56.17
2018-08-17T11:33:03.395Z,56.73
2018-08-17T11:34:43.199Z,56.83
2018-08-17T11:36:25.737Z,56.25
2018-08-17T11:38:06.849Z,56.74
2018-08-17T11:39:49.371Z,56.50
2018-08-17T11:41:27.308Z,56.74
2018-08-17T11:43:05.641Z,56.20
2018-08-17T11:44:47.098Z,56.91
2018-08-17T11:46:49.485Z,56.42
2018-08-17T11:48:35.518Z,56.29
2018-08-17T11:50:14.456Z,56.31
2018-08-17T11:51:50.835Z,56.11
2018-08-17T11:53:27.448Z,56.23
2018-08-17T11:55:04.317Z,56.35
2018-08-17T11:56:39.545Z,56.91
2018-08-17T11:58:16.200Z,56.94
2018-08-17T11:59:57.398Z,56.83
2018-08-17T12:01:45.931Z,56.69
2018-08-17T12:03:24.789Z,56.31
2018-08-17T12:05:01.605Z,56.19
2018-08-17T12:06:37.192Z,56.87
2018-08-17T12:08:16.676Z,56.57
2018-08-17T12:10:05.747Z,56.97
2018-08-17T12:13:50.658Z,56.34
2018-08-17T12:15:33.830Z,56.43
2018-08-17T12:17:10.444Z,56.41
2018-08-17T12:18:46.812Z,56.78
2018-08-17T12:20:23.102Z,56.43
2018-08-17T12:22:12.237Z,56.76
2018-08-17T12:23:49.586Z,57.06
2018-08-17T12:25:26.913Z,56.92
2018-08-17T12:27:03.381Z,56.54
2018-08-17T12:28:41.917Z,56.92
2018-08-17T12:30:26.570Z,56.82
2018-08-17T12:32:04.685Z,56.76
2018-08-17T12:33:42.701Z,56.96
2018-08-17T12:35:21.537Z,56.70
2018-08-17T12:37:02.523Z,56.56
2018-08-17T12:38:47.827Z,57.08
2018-08-17T12:40:39.643Z,57.17
2018-08-17T12:42:17.695Z,56.52
2018-08-17T12:43:58.201Z,56.39
2018-08-17T12:45:38.608Z,56.93
2018-08-17T12:47:22.761Z,56.45
2018-08-17T12:49:04.410Z,57.09
2018-08-17T12:50:55.323Z,56.73
2018-08-17T12:52:43.744Z,56.98
2018-08-17T12:54:27.477Z,57.17
2018-08-17T12:56:08.615Z,56.95
2018-08-17T12:57:48.574Z,56.69
2018-08-17T12:59:31.372Z,56.51
2018-08-17T13:01:13.647Z,56.31
2018-08-17T13:03:00.291Z,56.67
2018-08-17T13:04:43.433Z,56.63
2018-08-17T13:06:19.764Z,56.67
2018-08-17T13:07:56.610Z,56.69
2018-08-17T13:09:35.622Z,57.06
2018-08-17T13:11:13.034Z,56.00
2018-08-17T13:13:11.591Z,56.58
2018-08-17T13:14:51.006Z,57.04
2018-08-17T13:16:32.692Z,56.22
2018-08-17T13:18:21.789Z,56.85
2018-08-17T13:19:57.342Z,56.68
2018-08-17T13:21:34.384Z,56.69
2018-08-17T13:23:11.924Z,56.79
2018-08-17T13:24:52.725Z,56.80
2018-08-17T13:26:39.163Z,56.66
2018-08-17T13:28:57.811Z,56.24
2018-08-17T13:30:49.375Z,56.16
2018-08-17T13:32:28.636Z,56.54
2018-08-17T13:34:04.024Z,56.58
2018-08-17T13:35:45.370Z,56.75
2018-08-17T13:37:26.165Z,56.86
2018-08-17T13:39:03.620Z,56.58
2018-08-17T13:40:41.167Z,56.69
2018-08-17T13:42:19.103Z,56.11
2018-08-17T13:43:55.991Z,56.06
2018-08-17T13:45:34.304Z,56.01
2018-08-17T13:47:10.377Z,56.33
2018-08-17T13:48:48.308Z,56.73
2018-08-17T13:50:27.380Z,55.98
2018-08-17T13:52:05.859Z,55.99
2018-08-17T13:53:41.193Z,56.08
2018-08-17T13:55:16.562Z,56.69
2018-08-17T13:56:52.160Z,56.57
2018-08-17T13:58:28.344Z,55.83
2018-08-17T14:00:14.042Z,56.49
2018-08-17T14:01:51.387Z,56.10
2018-08-17T14:03:27.856Z,56.55
2018-08-17T14:05:05.771Z,55.79
2018-08-17T14:06:42.644Z,55.94
2018-08-17T14:08:18.004Z,55.68
2018-08-17T14:09:53.980Z,55.92
2018-08-17T14:11:31.245Z,56.40
2018-08-17T14:13:07.550Z,55.80
2018-08-17T14:14:43.733Z,56.03
2018-08-17T14:16:19.595Z,55.54
2018-08-17T14:17:56.352Z,56.23
2018-08-17T14:19:34.468Z,55.96
2018-08-17T14:21:11.658Z,55.78
2018-08-17T14:22:48.001Z,56.11
2018-08-17T14:24:24.432Z,56.04
2018-08-17T14:26:01.488Z,55.88
2018-08-17T14:27:37.378Z,55.97
2018-08-17T14:29:16.482Z,55.27
2018-08-17T14:31:09.397Z,55.73
2018-08-17T14:32:45.190Z,55.43
2018-08-17T14:34:22.841Z,55.91
2018-08-17T14:36:00.761Z,55.90
2018-08-17T14:37:37.846Z,55.82
2018-08-17T14:39:15.410Z,55.30
2018-08-17T14:40:50.726Z,55.03
2018-08-17T14:42:27.994Z,55.76
2018-08-17T14:44:04.915Z,55.74
2018-08-17T14:45:42.473Z,55.25
2018-08-17T14:47:20.801Z,55.71
2018-08-17T14:48:59.720Z,54.91
2018-08-17T14:50:36.640Z,55.48
2018-08-17T14:52:12.287Z,54.97
2018-08-17T14:53:48.441Z,54.86
2018-08-17T14:55:24.351Z,54.92
2018-08-17T14:57:00.537Z,54.84
2018-08-17T14:58:39.375Z,54.87
2018-08-17T15:00:27.596Z,54.86
2018-08-17T15:02:06.023Z,55.10
2018-08-17T15:03:43.925Z,54.76
2018-08-17T15:05:21.152Z,54.65
2018-08-17T15:06:58.664Z,55.13
2018-08-17T15:08:35.484Z,54.93
2018-08-17T15:10:14.539Z,54.36
2018-08-17T15:11:50.533Z,54.49
2018-08-17T15:13:31.693Z,54.40
2018-08-17T15:15:11.776Z,54.64
2018-08-17T15:16:47.973Z,54.69
2018-08-17T15:18:29.111Z,54.70
2018-08-17T15:20:09.528Z,54.21
2018-08-17T15:21:46.834Z,54.61
2018-08-17T15:23:22.118Z,54.48
2018-08-17T15:24:58.440Z,54.56
2018-08-17T15:26:42.326Z,54.18
2018-08-17T15:28:28.275Z,54.39
2018-08-17T15:30:07.146Z,54.07
2018-08-17T15:31:42.617Z,54.57
2018-08-17T15:33:22.540Z,54.58
2018-08-17T15:34:59.244Z,53.94
2018-08-17T15:36:35.547Z,53.92
2018-08-17T15:38:12.287Z,53.83
2018-08-17T15:39:51.192Z,54.18
2018-08-17T15:41:27.694Z,53.69
2018-08-17T15:43:07.346Z,53.68
2018-08-17T15:44:43.479Z,53.82
2018-08-17T15:46:22.995Z,54.22
2018-08-17T15:48:00.018Z,53.54
2018-08-17T15:49:37.774Z,53.52
2018-08-17T15:51:16.141Z,53.37
2018-08-17T15:52:53.591Z,53.26
2018-08-17T15:54:32.029Z,53.69
2018-08-17T15:56:09.284Z,53.56
2018-08-17T15:57:50.049Z,53.36
2018-08-17T16:01:13.858Z,53.46
2018-08-17T16:02:49.794Z,53.60
2018-08-17T16:04:27.626Z,53.14
2018-08-17T16:06:04.253Z,53.28
2018-08-17T16:07:40.618Z,52.86
2018-08-17T16:09:16.451Z,53.45
2018-08-17T16:10:51.757Z,53.07
2018-08-17T16:12:28.585Z,53.48
2018-08-17T16:14:04.943Z,53.05
2018-08-17T16:15:43.934Z,53.04
2018-08-17T16:17:19.584Z,53.01
2018-08-17T16:18:57.280Z,52.95
2018-08-17T16:20:33.387Z,52.72
2018-08-17T16:22:09.771Z,52.41
2018-08-17T16:23:45.005Z,52.80
2018-08-17T16:25:21.456Z,53.05
2018-08-17T16:27:06.381Z,52.47
2018-08-17T16:28:46.100Z,52.18
2018-08-17T16:30:26.914Z,52.86
2018-08-17T16:32:06.866Z,52.90
2018-08-17T16:33:44.474Z,52.18
2018-08-17T16:35:22.352Z,52.22
2018-08-17T16:37:00.165Z,52.25
2018-08-17T16:38:40.170Z,52.38
2018-08-17T16:40:16.801Z,52.57
2018-08-17T16:41:54.281Z,52.23
2018-08-17T16:43:45.641Z,51.82
2018-08-17T16:45:22.111Z,52.43
2018-08-17T16:46:57.590Z,52.37
2018-08-17T16:48:34.531Z,51.69
2018-08-17T16:50:12.460Z,51.62
2018-08-17T16:51:52.122Z,51.98
2018-08-17T16:53:30.688Z,52.01
2018-08-17T16:55:07.874Z,51.80
2018-08-17T16:56:47.895Z,52.00
2018-08-17T16:58:25.629Z,51.66
2018-08-17T17:00:02.557Z,51.38
2018-08-17T17:01:40.005Z,51.50
2018-08-17T17:03:16.525Z,51.60
2018-08-17T17:04:54.607Z,51.89
2018-08-17T17:06:34.554Z,51.38
2018-08-17T17:08:10.681Z,51.22
2018-08-17T17:09:46.645Z,51.07
2018-08-17T17:11:22.763Z,51.05
2018-08-17T17:12:59.304Z,51.52
2018-08-17T17:14:37.965Z,51.16
2018-08-17T17:16:13.903Z,50.85
2018-08-17T17:17:58.866Z,50.88
2018-08-17T17:19:34.724Z,51.10
2018-08-17T17:21:10.285Z,51.46
2018-08-17T17:22:49.604Z,50.72
2018-08-17T17:24:25.399Z,50.84
2018-08-17T17:26:04.712Z,51.33
2018-08-17T17:27:40.795Z,51.18
2018-08-17T17:31:00.329Z,50.93
2018-08-17T17:32:36.373Z,50.33
2018-08-17T17:34:13.436Z,50.27
2018-08-17T17:35:52.598Z,50.41
2018-08-17T17:37:28.267Z,50.88
2018-08-17T17:39:05.887Z,50.57
2018-08-17T17:40:45.513Z,50.45
2018-08-17T17:42:24.848Z,50.50
2018-08-17T17:44:01.640Z,50.11
2018-08-17T17:45:40.226Z,49.93
2018-08-17T17:47:16.389Z,50.14
2018-08-17T17:48:54.033Z,50.34
2018-08-17T17:50:30.658Z,50.17
2018-08-17T17:53:38.779Z,50.17
2018-08-17T17:55:14.471Z,50.06
2018-08-17T17:57:02.653Z,50.22
2018-08-17T17:58:38.679Z,50.06
2018-08-17T18:00:21.407Z,49.50
2018-08-17T18:02:00.273Z,49.60
2018-08-17T18:03:37.319Z,49.35
2018-08-17T18:05:14.458Z,49.39
2018-08-17T18:06:52.450Z,49.40
2018-08-17T18:08:28.431Z,49.15
2018-08-17T18:10:07.335Z,49.36
2018-08-17T18:11:43.489Z,49.65
2018-08-17T18:13:22.239Z,49.37
2018-08-17T18:14:57.982Z,49.66
2018-08-17T18:16:37.465Z,49.65
2018-08-17T18:18:14.056Z,49.41
2018-08-17T18:19:54.585Z,49.33
2018-08-17T18:21:34.689Z,49.63
2018-08-17T18:23:10.817Z,49.29
2018-08-17T18:24:48.279Z,48.87
2018-08-17T18:26:25.263Z,48.77
2018-08-17T18:28:02.504Z,49.24
2018-08-17T18:29:38.057Z,49.05
2018-08-17T18:31:13.955Z,48.57
2018-08-17T18:32:51.453Z,48.86
2018-08-17T18:34:27.850Z,49.07
2018-08-17T18:36:08.652Z,48.39
2018-08-17T18:37:44.685Z,49.13
2018-08-17T18:39:24.822Z,48.37
2018-08-17T18:41:00.684Z,48.99
2018-08-17T18:42:36.318Z,48.84
2018-08-17T18:44:14.050Z,48.67
2018-08-17T18:45:51.751Z,48.75
2018-08-17T18:47:28.106Z,48.57
2018-08-17T18:49:03.432Z,48.17
2018-08-17T18:50:40.868Z,48.78
2018-08-17T18:52:17.498Z,48.65
2018-08-17T18:53:57.609Z,47.98
2018-08-17T18:57:01.498Z,48.52
2018-08-17T18:58:38.542Z,48.59
2018-08-17T19:00:16.375Z,48.46
2018-08-17T19:01:53.167Z,48.08
2018-08-17T19:03:29.028Z,47.91
2018-08-17T19:05:06.085Z,48.37
2018-08-17T19:06:42.437Z,47.71
2018-08-17T19:08:21.070Z,47.77
2018-08-17T19:09:57.376Z,47.45
2018-08-17T19:11:34.792Z,47.66
2018-08-17T19:13:11.341Z,47.74
2018-08-17T19:14:52.780Z,47.44
2018-08-17T19:16:35.578Z,48.11
2018-08-17T19:18:12.403Z,47.76
2018-08-17T19:19:49.465Z,47.42
2018-08-17T19:21:29.683Z,47.27
2018-08-17T19:23:05.824Z,47.70
2018-08-17T19:24:44.390Z,47.63
2018-08-17T19:26:22.458Z,47.47
2018-08-17T19:28:00.477Z,47.50
2018-08-17T19:29:36.746Z,47.06
2018-08-17T19:31:12.288Z,47.32
2018-08-17T19:32:51.056Z,47.46
2018-08-17T19:34:33.178Z,47.44
2018-08-17T19:36:08.932Z,47.31
2018-08-17T19:37:47.993Z,47.29
2018-08-17T19:39:34.823Z,47.19
2018-08-17T19:41:11.198Z,47.38
2018-08-17T19:42:48.948Z,46.75
2018-08-17T19:44:39.738Z,47.35
2018-08-17T19:46:17.236Z,47.42
2018-08-17T19:49:49.424Z,47.18
2018-08-17T19:51:26.538Z,47.36
2018-08-17T19:53:05.828Z,47.55
2018-08-17T19:54:44.638Z,46.61
2018-08-17T19:56:22.156Z,47.00
2018-08-17T19:58:03.501Z,47.32
2018-08-17T19:59:55.839Z,46.58
2018-08-17T20:01:37.566Z,46.64
2018-08-17T20:03:17.320Z,47.18
2018-08-17T20:04:53.016Z,47.00
2018-08-17T20:06:33.723Z,46.81
2018-08-17T20:08:18.294Z,46.31
2018-08-17T20:11:40.594Z,46.53
2018-08-17T20:13:18.634Z,47.03
2018-08-17T20:14:54.455Z,47.04
2018-08-17T20:16:30.969Z,46.20
2018-08-17T20:18:06.563Z,46.57
2018-08-17T20:19:49.143Z,46.94
2018-08-17T20:21:25.702Z,46.67
2018-08-17T20:23:03.322Z,46.17
2018-08-17T20:24:38.637Z,46.68
2018-08-17T20:26:15.356Z,46.19
2018-08-17T20:27:51.245Z,45.93
2018-08-17T20:29:28.258Z,46.44
2018-08-17T20:31:04.206Z,46.62
2018-08-17T20:32:41.603Z,45.99
2018-08-17T20:34:17.581Z,46.02
2018-08-17T20:35:53.110Z,46.71
2018-08-17T20:37:28.350Z,46.34
2018-08-17T20:39:12.569Z,46.30
2018-08-17T20:40:47.933Z,45.91
2018-08-17T20:42:24.890Z,46.54
2018-08-17T20:44:01.788Z,46.46
2018-08-17T20:45:37.807Z,45.96
2018-08-17T20:47:15.936Z,45.82
2018-08-17T20:48:52.279Z,46.01
2018-08-17T20:50:27.784Z,46.51
2018-08-17T20:52:06.507Z,46.13
2018-08-17T20:53:41.661Z,45.73
2018-08-17T20:55:18.623Z,46.16
2018-08-17T20:56:54.470Z,45.88
2018-08-17T20:58:29.773Z,46.46
2018-08-17T21:00:05.858Z,46.53
2018-08-17T21:01:43.695Z,46.40
2018-08-17T21:03:24.403Z,46.20
2018-08-17T21:05:00.868Z,45.75
2018-08-17T21:06:37.350Z,45.67
2018-08-17T21:08:15.774Z,45.87
2018-08-17T21:09:52.855Z,45.96
2018-08-17T21:11:29.073Z,46.26
2018-08-17T21:13:06.578Z,45.84
2018-08-17T21:14:42.079Z,45.81
2018-08-17T21:16:17.606Z,45.63
2018-08-17T21:17:53.176Z,45.90
2018-08-17T21:19:34.645Z,45.52